1933 NOT_NAMED (1933184N12148)


IBTrACS version v04r00. Visit IBTrACS website for data access.
Please direct all questions to the IBTrACS Q and A forum

Storm track - Intensity - Wind Radii - Intensity Data - Source Data - All data

Summary Information

Storm ID 1933184N12148
Start Jul 2 22Z
End Jul 4 22Z
ATCF IDs
Track status Best track data.

Storm track plot

Map of storm track

Intensity plots

No Intensity information for this storm


Radial wind information

No radial wind information for this storm


Position and Intensity Table

BASIN ISO_TIME_________ NATURE LAT LON
degrees north degrees east
WP 1933-07-02 22:00:00 NR 12.40 148.10
WP 1933-07-03 00:00:00 NR 12.63 147.74
WP 03:00:00 NR 12.98 147.20
WP 06:00:00 NR 13.38 146.68
WP 09:00:00 NR 13.83 146.17
WP 10:00:00 NR 14.00 146.00
WP 12:00:00 NR 14.37 145.68
WP 15:00:00 NR 14.97 145.23
WP 18:00:00 NR 15.62 144.83
WP 21:00:00 NR 16.28 144.49
WP 22:00:00 NR 16.50 144.40
WP 1933-07-04 00:00:00 NR 16.91 144.22
WP 03:00:00 NR 17.53 144.02
WP 06:00:00 NR 18.16 143.89
WP 09:00:00 NR 18.79 143.81
WP 10:00:00 NR 19.00 143.80
WP 12:00:00 NR 19.43 143.79
WP 15:00:00 NR 20.07 143.80
WP 18:00:00 NR 20.73 143.83
WP 21:00:00 NR 21.38 143.88
WP 22:00:00 NR 21.60 143.90

Source Information

Agency Information
USA
TOKYO
CMA
HKO
NEWDELHI
REUNION
BOM
NADI
WELLINGTON
DS824
TD9636 cons_worldwide_trop_cyclone_18710101-19891231-003:Line=9304
TD9635
NEUMANN
MLC

All available IBTrACS Data

SEASON BASIN SUBBASIN ISO_TIME_________ NATURE LAT LON DIST2LAND LANDFALL IFLAG USA SSHS TD9636 LAT TD9636 LON TD9636 STAGE STORM SPEED STORM DIR
Year degrees north degrees east km km 1 degrees north degrees east kts degrees
1933 WP MM 1933-07-02 22:00:00 NR 12.40 148.10 1626 1625 __________O___ -1 12.40 148.10 7 13 303
1933 WP MM 1933-07-03 00:00:00 NR 12.63 147.74 1647 1647 __________P___ -1 12.63 147.74 7 13 304
1933 WP MM 03:00:00 NR 12.98 147.20 1691 1691 __________P___ -1 12.98 147.20 7 13 306
1933 WP MM 06:00:00 NR 13.38 146.68 1736 1736 __________P___ -1 13.38 146.68 7 13 310
1933 WP MM 09:00:00 NR 13.83 146.17 1781 1793 __________P___ -1 13.83 146.17 7 14 313
1933 WP MM 10:00:00 NR 14.00 146.00 1804 1804 __________O___ -1 14.00 146.00 7 14 319
1933 WP MM 12:00:00 NR 14.37 145.68 1851 1851 __________P___ -1 14.37 145.68 7 15 322
1933 WP MM 15:00:00 NR 14.97 145.23 1921 1921 __________P___ -1 14.97 145.23 7 15 327
1933 WP MM 18:00:00 NR 15.62 144.83 1992 2003 __________P___ -1 15.62 144.83 7 15 332
1933 WP MM 21:00:00 NR 16.28 144.49 2074 2074 __________P___ -1 16.28 144.49 7 15 335
1933 WP MM 22:00:00 NR 16.50 144.40 2075 2025 __________O___ -1 16.50 144.40 7 14 338
1933 WP MM 1933-07-04 00:00:00 NR 16.91 144.22 2025 1955 __________P___ -1 16.91 144.22 7 13 341
1933 WP MM 03:00:00 NR 17.53 144.02 1955 1879 __________P___ -1 17.53 144.02 7 13 346
1933 WP MM 06:00:00 NR 18.16 143.89 1879 1813 __________P___ -1 18.16 143.89 7 13 351
1933 WP MM 09:00:00 NR 18.79 143.81 1813 1793 __________P___ -1 18.79 143.81 7 13 354
1933 WP MM 10:00:00 NR 19.00 143.80 1793 1752 __________O___ -1 19.00 143.80 7 13 0
1933 WP MM 12:00:00 NR 19.43 143.79 1752 1682 __________P___ -1 19.43 143.79 7 13 359
1933 WP MM 15:00:00 NR 20.07 143.80 1682 1622 __________P___ -1 20.07 143.80 7 13 2
1933 WP MM 18:00:00 NR 20.73 143.83 1622 1555 __________P___ -1 20.73 143.83 7 13 4
1933 WP MM 21:00:00 NR 21.38 143.88 1555 1534 __________P___ -1 21.38 143.88 7 13 4
1933 WP MM 22:00:00 NR 21.60 143.90 1534 __________O___ -1 21.60 143.90 7 13 7